Bluewell, West Virginia
Current Conditions -  °F | °C
As of 3:52 AM on Saturday 25 Oct 2014 (Local Time) from KBLF Reporting Station
Clear Clear  
Wind Chill: 36°   Ceiling: Unl
Heat Index: 41°   Visibility: 10mi
Dew Point: 36°   Wind: 8mph
Humidity: 82%   Direction: 270°W
Pressure: 30.07"   Gusts: NA
Location:  37.2994°N, 81.226°W
Report Text: KBLF 250752Z AUTO 27007KT 10SM CLR 05/02 A3007 RMK AO2 SLP170 T00500022
Loading
Personal Weather Stations






























Interactive Weather Map
Tropical Storm Tracking
New forecast layout! Learn more

10-Day Weather Forecast

Advertisements
Track Severe Weather on mobile